Kermit, TX

10:56 AM CDT on October 23, 2014 (GMT -0500)
Andrews | Change Station
CLOSE
Current Station
Airport
Location: Andrews,
Elevation: 3173 ft
Nearby Weather Stations
Active Advisory: Dense Fog Advisory

Elev 3173 ft 32.33 °N, 102.53 °W | Updated 21 minutes ago

Overcast
Overcast
57 °F
Feels Like 57 °F
N
0
Wind Variable Wind from North

Today
High -- | Low -- °F
--% Chance of Precip.
Yesterday
High -- | Low -- °F
Precip. -- in
8:01 AM 7:11 PM
Waning Crescent, 0% visible
Pressure 30.19 in
Visibility 0.2 miles
Clouds Overcast 200 ft
Dew Point 57 °F
Humidity 100%
Rainfall 0.00 in
Snow Depth Not available.
UV 1 out of 12
Pollen 5.60 out of 12
Air Quality Not available.
Flu Activity Sporadic
METAR KE11 231535Z AUTO 00000KT 1/4SM FG OVC002 14/14 A3019 RMK AO2 T01370137

More Conditions Fewer Conditions

Pressure 30.19 in
Visibility 0.2 miles
Clouds Overcast 200 ft
Dew Point 57 °F
Humidity 100%
Rainfall 0.00 in
Snow Depth Not available.
UV 1 out of 12
Pollen 5.60 out of 12
Air Quality Not available.
Flu Activity Sporadic
METAR KE11 231535Z AUTO 00000KT 1/4SM FG OVC002 14/14 A3019 RMK AO2 T01370137

More Conditions Fewer Conditions

10-Day Weather Forecast

Almanac

Astronomy

Oct. 23, 2014 Rise Set
Actual Time 8:01 AM CDT 7:11 PM CDT
Civil Twilight 7:36 AM CDT 7:36 PM CDT
Nautical Twilight 7:08 AM CDT 8:04 PM CDT
Astronomical Twilight 6:39 AM CDT 8:32 PM CDT
Moon 7:44 AM CDT 7:14 PM CDT
Length of Visible Light 11h 59m
Length of Day
11h 09m
Tomorrow will be 1m 48s shorter.
Waning Crescent, 0% of the Moon is Illuminated
Today
Waning Crescent
Oct 23
New
Oct 30
First Quarter
Nov 6
Full
Nov 14
Last Quarter

Today's Extremes

State Highs State Lows

Community

WunderPhotos

Upload Photos

1,764,288 photos uploaded!

WunderBlogs® & News

Nearby

Snow Depth

Station Depth Elevation
No new snow has been reported.

Earthquake Activity

City Distance Mag. Time & Date
No recent earthquake activity has been reported nearby.
Minimum magnitude displayed is 2.5.

Coastal Water Temperatures

Place Temperature
No Stations Reporting

Nearby Weather Stations